Track Тростянчук Дмитрий

Time Latitude Longitude Accuracy (66% radius in meters) Altitude (meters) Speed (km/hour) Bearing (degrees) Battery (%) GPS flag
03:32:59 51.887543 107.641648 9 680.8 0.59643715620041 142.11000061035 49 1 delete
03:32:56 51.887570 107.641640 11 681.6 1.4396759271622 142.11000061035 49 1 delete
03:32:52 51.887700 107.641565 9 683.8 3.3163964748383 135.64999389648 49 1 delete
03:32:50 51.887787 107.641483 11 685.9 3.7585825920105 133.24000549316 49 1 delete
03:32:48 51.887873 107.641353 11 687.5 3.8922669887543 131.36999511719 49 1 delete
03:32:47 51.887918 107.641292 9 687 4.0876512527466 131.36999511719 49 1 delete
03:32:46 51.887962 107.641228 9 686 3.5734813213348 133.80000305176 49 1 delete
03:32:42 51.888075 107.641122 9 676.8 1.8304451704025 158.11000061035 49 1 delete
03:32:36 51.888088 107.641113 14 679.3 0.64271247386932 156.88000488281 49 1 delete
03:32:26 51.888160 107.641058 9 682.9 1.6710524559021 145.39999389648 49 1 delete
03:32:24 51.888192 107.641038 9 684 1.7584614753723 148.89999389648 49 1 delete
03:32:20 51.888260 107.640958 9 685.8 2.3806071281433 162.13999938965 49 1 delete
03:32:17 51.888338 107.640868 9 686.4 2.6685423851013 166.66999816895 49 1 delete
03:32:14 51.888428 107.640777 10 687.8 2.133805513382 169.85000610352 49 1 delete
03:32:06 51.888522 107.640743 20.625 691.6 2.442307472229 132.27000427246 49 1 delete
03:32:04 51.888578 107.640593 9 693.4 2.7096757888794 133.55999755859 49 1 delete
03:32:02 51.888648 107.640405 9 694.2 3.1518621444702 124.98000335693 49 1 delete
03:32:00 51.888710 107.640222 9 695.8 3.5323479175568 120.83999633789 49 1 delete
03:31:58 51.888777 107.640052 9 696.6 3.5631980895996 115.87000274658 49 1 delete
03:31:56 51.888838 107.639918 11 696.5 3.8151414394379 109.20999908447 49 1 delete
03:31:53 51.888912 107.639802 11 696.6 3.6711738109589 103.20999908447 49 1 delete
03:31:51 51.888968 107.639730 9 695.6 3.2444126605988 104.30000305176 49 1 delete
03:31:50 51.888995 107.639693 9 694.7 2.8947770595551 118.08000183105 49 1 delete
03:31:39 51.889093 107.639650 8 681.4 0.51931166648865 152.33000183105 49 1 delete
03:31:36 51.889108 107.639595 9 680.7 1.1928743124008 152.33000183105 49 1 delete
03:31:33 51.889182 107.639507 9 679.7 1.6864775419235 149.08000183105 49 1 delete
03:31:30 51.889262 107.639405 9 676.6 1.984696149826 134.88000488281 49 1 delete
03:31:28 51.889312 107.639378 11 671.9 1.9075707197189 134.88000488281 49 1 delete
03:31:24 51.889362 107.639330 9 670.5 1.1106072664261 134.88000488281 49 1 delete
03:31:17 51.889398 107.639312 7 673.7 0 134.88000488281 49 1 delete
03:31:05 51.889408 107.639252 9 679.2 0.71469628810883 134.88000488281 49 1 delete
03:31:02 51.889440 107.639235 9 680 0.95635622739792 134.88000488281 49 1 delete
03:30:58 51.889528 107.639113 9 682.2 3.1415786743164 132.19999694824 49 1 delete
03:30:56 51.889593 107.639000 9 682.8 3.4809308052063 126.98000335693 49 1 delete
03:30:54 51.889660 107.638923 11 682.8 3.7380158901215 118.9700012207 49 1 delete
03:30:51 51.889700 107.638903 11 683.1 3.064453125 115.91000366211 49 1 delete
03:30:42 51.889695 107.639085 8 685.1 0 221.17999267578 49 1 delete
03:30:41 51.889702 107.639088 8 684.9 0 221.17999267578 49 1 delete
03:30:30 51.889785 107.639010 9 680.7 0 129.82000732422 49 1 delete
03:30:27 51.889787 107.639005 7 680.2 0 129.82000732422 49 1 delete
03:30:20 51.889803 107.638967 8 681.2 0 129.82000732422 49 1 delete
03:30:08 51.889802 107.638958 9 685.5 0 129.82000732422 49 1 delete
03:30:05 51.889852 107.638903 9 686.5 0.79696345329285 129.82000732422 49 1 delete
03:30:02 51.889947 107.638778 9 685.4 1.4962347745895 136.22999572754 49 1 delete
03:29:59 51.890035 107.638642 9 680.7 1.6042103767395 147.55999755859 49 1 delete
03:29:57 51.890088 107.638547 9 677.5 1.6350606679916 162.64999389648 49 1 delete
03:29:56 51.890107 107.638523 9 675.2 1.5322265625 168.97999572754 49 1 delete
03:29:46 51.890173 107.638408 9 674 0.9769229888916 158.55000305176 49 1 delete
03:29:38 51.890237 107.638298 9 675.9 0.93578940629959 178.57000732422 49 1 delete
03:29:34 51.890288 107.638235 9 676.4 1.3574088811874 189.39999389648 49 1 delete